Arcadia, Oklahoma
Current Conditions -  °F | °C
As of 12:53 PM on Thursday 23 Oct 2014 (Local Time) from KGOK Reporting Station
Clear Clear  
Wind Chill: 23°   Ceiling: Unl
Heat Index: 23°   Visibility: 10mi
Dew Point: 15°   Wind: 6mph
Humidity: 61%   Direction: 210°SSW
Pressure: 30.11"   Gusts: NA
Location:  35.67°N, 97.33°W
Report Text: KGOK 231753Z AUTO 21005KT 10SM CLR 23/15 A3011 RMK AO2 SLP191 T02280150 10233 20156 58003
Loading
Personal Weather Stations






























Interactive Weather Map New forecast layout! Learn more

10-Day Weather Forecast

Advertisements
Track Severe Weather on mobile